Main page
METAR-TAF:

METAR-TAF

Airports :

Río Amazonas Airport

Shell Mera, Ecuador

latitude: 01-30-19S, longitude: 078-03-46W, elevation: 1056 m

Current weather observation

The report was made 1 hour and 1 minutes ago, at 23:00 UTC
Wind 2 kt from the Northwest
Temperature 22°C
Humidity 94%
Pressure 1012 hPa
Visibility 10 km or more
Scattered clouds at a height of 2600 ft
Broken clouds at a height of 10000 ft

METAR: SESM 042300Z 31002KT 9999 SCT026 BKN100 22/21 Q1012 RMK A2990

Time: 19:01 (00:01 UTC)


TAF: missing

Weather observations and forecasts of more than 4000 airports (METAR and TAF reports).

The available stations are represented by yellow and red dots on the map.

Hover mouse over dot to see the name of the station.

Then click to see weather observations and forecasts.

To change the map : click on the green buttons with a black cross to zoom in, on the green button with a dash to zoom out, or on the green arrows for adjacent maps.


METAR-TAF: